createdAt,value
2023-06-30T00:04:43.692Z,96759.75
2023-06-30T00:09:46.190Z,96752.56
2023-06-30T00:14:47.878Z,96752.44
2023-06-30T00:19:52.028Z,96743.28
2023-06-30T00:24:57.295Z,96745.88
2023-06-30T00:29:59.768Z,96744.13
2023-06-30T00:35:02.295Z,96751.78
2023-06-30T00:40:04.454Z,96749.44
2023-06-30T00:45:07.605Z,96744.81
2023-06-30T00:50:09.854Z,96732.38
2023-06-30T00:55:13.495Z,96728.69
2023-06-30T01:00:16.542Z,96721.88
2023-06-30T01:05:26.255Z,96699.81
2023-06-30T01:10:30.479Z,96696.66
2023-06-30T01:15:33.554Z,96681.09
2023-06-30T01:20:41.132Z,96680.34
2023-06-30T01:25:44.158Z,96678.38
2023-06-30T01:30:47.317Z,96671.63
2023-06-30T01:35:49.326Z,96666.75
2023-06-30T01:40:51.541Z,96677.09
2023-06-30T01:45:55.736Z,96672.41
2023-06-30T01:50:58.817Z,96669.69
2023-06-30T01:56:00.799Z,96671.34
2023-06-30T02:01:03.375Z,96672.97
2023-06-30T02:06:05.325Z,96668.19
2023-06-30T02:11:07.109Z,96668.50
2023-06-30T02:16:09.102Z,96659.28
2023-06-30T02:21:10.844Z,96653.47
2023-06-30T02:26:12.613Z,96665.50
2023-06-30T02:31:14.435Z,96668.63
2023-06-30T02:36:16.155Z,96665.16
2023-06-30T02:41:18.078Z,96668.63
2023-06-30T02:46:20.017Z,96664.22
2023-06-30T02:51:21.966Z,96659.28
2023-06-30T02:56:23.781Z,96660.09
2023-06-30T03:01:26.188Z,96665.09
2023-06-30T03:06:28.140Z,96661.72
2023-06-30T03:11:30.062Z,96652.47
2023-06-30T03:16:33.415Z,96659.53
2023-06-30T03:21:35.938Z,96661.31
2023-06-30T03:26:37.867Z,96659.94
2023-06-30T03:31:50.030Z,96656.41
2023-06-30T03:36:52.320Z,96661.78
2023-06-30T03:41:56.063Z,96660.84
2023-06-30T03:46:58.119Z,96671.06
2023-06-30T03:52:00.333Z,96678.13
2023-06-30T03:57:02.091Z,96678.38
2023-06-30T04:02:04.788Z,96679.28
2023-06-30T04:07:06.849Z,96676.28
2023-06-30T04:12:09.640Z,96674.06
2023-06-30T04:17:11.291Z,96666.59
2023-06-30T04:22:13.079Z,96660.09
2023-06-30T04:27:14.797Z,96653.47
2023-06-30T04:32:16.537Z,96651.50
2023-06-30T04:37:18.458Z,96652.25
2023-06-30T04:42:20.183Z,96650.91
2023-06-30T04:47:22.211Z,96646.69
2023-06-30T04:52:24.001Z,96642.63
2023-06-30T04:57:27.512Z,96631.84
2023-06-30T05:02:29.293Z,96628.28
2023-06-30T05:07:31.071Z,96625.47
2023-06-30T05:12:32.692Z,96629.00
2023-06-30T05:17:34.628Z,96628.31
2023-06-30T05:22:36.717Z,96639.81
2023-06-30T05:27:38.473Z,96641.19
2023-06-30T05:32:40.649Z,96637.75
2023-06-30T05:37:42.419Z,96642.28
2023-06-30T05:42:44.129Z,96638.25
2023-06-30T05:47:47.022Z,96642.97
2023-06-30T05:52:49.418Z,96649.03
2023-06-30T05:57:51.990Z,96642.63
2023-06-30T06:02:55.046Z,96643.59
2023-06-30T06:07:56.965Z,96642.53
2023-06-30T06:12:58.814Z,96640.78
2023-06-30T06:18:01.272Z,96644.06
2023-06-30T06:23:03.042Z,96644.28
2023-06-30T06:28:05.134Z,96643.38
2023-06-30T06:33:07.215Z,96646.63
2023-06-30T06:38:09.482Z,96656.63
2023-06-30T06:43:11.468Z,96659.91
2023-06-30T06:48:19.472Z,96665.91
2023-06-30T06:53:26.480Z,96657.66
2023-06-30T06:58:32.908Z,96663.56
2023-06-30T07:03:35.344Z,96667.75
2023-06-30T07:08:37.810Z,96683.06
2023-06-30T07:13:39.607Z,96673.75
2023-06-30T07:18:41.406Z,96670.28
2023-06-30T07:23:43.173Z,96668.59
2023-06-30T07:28:44.933Z,96656.69
2023-06-30T07:33:46.630Z,96657.34
2023-06-30T07:38:49.626Z,96662.88
2023-06-30T07:43:51.576Z,96655.06
2023-06-30T07:48:53.286Z,96659.13
2023-06-30T07:53:55.117Z,96665.59
2023-06-30T07:58:56.729Z,96659.31
2023-06-30T08:03:58.471Z,96666.03
2023-06-30T08:09:00.444Z,96661.09
2023-06-30T08:14:03.322Z,96662.28
2023-06-30T08:19:05.143Z,96672.25
2023-06-30T08:24:07.164Z,96677.59
2023-06-30T08:29:08.878Z,96681.72
2023-06-30T08:34:11.628Z,96679.38
2023-06-30T08:39:14.431Z,96676.59
2023-06-30T08:44:18.746Z,96677.75
2023-06-30T08:49:21.619Z,96678.16
2023-06-30T08:54:26.663Z,96681.56
2023-06-30T08:59:28.502Z,96676.53
2023-06-30T09:04:30.453Z,96677.97
2023-06-30T09:09:35.862Z,96677.03
2023-06-30T09:14:40.365Z,96684.25
2023-06-30T09:19:42.151Z,96676.16
2023-06-30T09:24:43.837Z,96669.94
2023-06-30T09:29:53.642Z,96679.00
2023-06-30T09:34:55.503Z,96682.25
2023-06-30T09:39:57.153Z,96679.97
2023-06-30T09:44:58.906Z,96670.94
2023-06-30T09:50:00.648Z,96662.06
2023-06-30T09:55:11.819Z,96659.91
2023-06-30T10:00:26.046Z,96650.53
2023-06-30T10:05:39.391Z,96647.75
2023-06-30T10:10:42.967Z,96654.69
2023-06-30T10:15:45.307Z,96659.09
2023-06-30T10:20:50.007Z,96645.34
2023-06-30T10:25:52.802Z,96654.66
2023-06-30T10:30:54.555Z,96658.31
2023-06-30T10:35:57.400Z,96659.16
2023-06-30T10:41:16.002Z,96659.13
2023-06-30T10:46:17.953Z,96664.34
2023-06-30T10:51:19.607Z,96677.38
2023-06-30T10:56:22.954Z,96675.84
2023-06-30T11:01:27.616Z,96673.34
2023-06-30T11:06:31.258Z,96671.97
2023-06-30T11:11:49.488Z,96670.91
2023-06-30T11:17:07.977Z,96658.56
2023-06-30T11:22:23.212Z,96660.13
2023-06-30T11:27:28.868Z,96647.84
2023-06-30T11:32:31.099Z,96643.09
2023-06-30T11:37:37.366Z,96640.25
2023-06-30T11:42:42.076Z,96632.09
2023-06-30T11:47:48.014Z,96620.84
2023-06-30T11:52:50.566Z,96627.16
2023-06-30T11:57:52.308Z,96614.75
2023-06-30T12:02:54.004Z,96607.72
2023-06-30T12:07:57.530Z,96619.94
2023-06-30T12:12:59.746Z,96617.63
2023-06-30T12:18:05.587Z,96621.59
2023-06-30T12:23:07.962Z,96625.25
2023-06-30T12:28:13.439Z,96613.00
2023-06-30T12:33:20.202Z,96605.88
2023-06-30T12:38:21.897Z,96593.88
2023-06-30T12:43:25.102Z,96583.72
2023-06-30T12:48:27.106Z,96575.91
2023-06-30T12:53:28.846Z,96579.16
2023-06-30T12:58:30.591Z,96586.53
2023-06-30T13:03:35.873Z,96588.44
2023-06-30T13:08:37.930Z,96582.50
2023-06-30T13:13:39.599Z,96583.38
2023-06-30T13:18:41.337Z,96589.97
2023-06-30T13:23:43.040Z,96584.34
2023-06-30T13:28:44.838Z,96580.41
2023-06-30T13:33:46.493Z,96571.28
2023-06-30T13:38:48.257Z,96554.66
2023-06-30T13:43:50.351Z,96556.78
2023-06-30T13:48:52.263Z,96553.31
2023-06-30T13:53:53.990Z,96559.16
2023-06-30T13:58:55.633Z,96557.47
2023-06-30T14:03:57.559Z,96559.69
2023-06-30T14:08:59.241Z,96548.75
2023-06-30T14:14:04.771Z,96545.56
2023-06-30T14:19:07.703Z,96557.06
2023-06-30T14:24:09.654Z,96548.38
2023-06-30T14:29:11.438Z,96554.75
2023-06-30T14:34:14.328Z,96559.84
2023-06-30T14:39:16.590Z,96559.56
2023-06-30T14:44:22.429Z,96569.59
2023-06-30T14:49:25.783Z,96564.97
2023-06-30T14:54:27.412Z,96568.75
2023-06-30T14:59:29.180Z,96574.09
2023-06-30T15:04:30.838Z,96564.03
2023-06-30T15:09:32.617Z,96547.94
2023-06-30T15:14:34.320Z,96544.16
2023-06-30T15:19:36.087Z,96541.44
2023-06-30T15:24:37.837Z,96536.13
2023-06-30T15:29:39.515Z,96535.09
2023-06-30T15:34:41.303Z,96526.97
2023-06-30T15:39:43.075Z,96523.38
2023-06-30T15:44:44.740Z,96516.88
2023-06-30T15:49:47.147Z,96515.66
2023-06-30T15:55:05.365Z,96509.31
2023-06-30T16:00:08.511Z,96513.69
2023-06-30T16:05:17.138Z,96502.63
2023-06-30T16:10:19.009Z,96506.81
2023-06-30T16:15:20.934Z,96500.28
2023-06-30T16:20:24.762Z,96499.91
2023-06-30T16:25:26.552Z,96498.72
2023-06-30T16:30:31.373Z,96501.47
2023-06-30T16:35:34.337Z,96502.28
2023-06-30T16:40:36.042Z,96499.72
2023-06-30T16:45:37.907Z,96494.72
2023-06-30T16:50:40.075Z,96498.81
2023-06-30T16:55:41.867Z,96503.97
2023-06-30T17:00:43.519Z,96495.88
2023-06-30T17:05:45.606Z,96496.28
2023-06-30T17:10:47.669Z,96497.91
2023-06-30T17:15:49.851Z,96487.78
2023-06-30T17:20:51.616Z,96487.03
2023-06-30T17:25:53.254Z,96491.06
2023-06-30T17:30:56.268Z,96499.81
2023-06-30T17:35:58.155Z,96504.66
2023-06-30T17:41:00.187Z,96507.19
2023-06-30T17:46:02.866Z,96501.13
2023-06-30T17:51:04.798Z,96501.38
2023-06-30T17:56:06.567Z,96514.56
2023-06-30T18:01:09.801Z,96543.47
2023-06-30T18:06:11.595Z,96532.63
2023-06-30T18:11:13.238Z,96565.53
2023-06-30T18:16:14.904Z,96562.09
2023-06-30T18:21:16.759Z,96561.59
2023-06-30T18:26:18.558Z,96571.88
2023-06-30T18:31:20.296Z,96567.00
2023-06-30T18:36:22.366Z,96558.28
2023-06-30T18:42:27.328Z,96563.59
2023-06-30T18:47:29.053Z,96576.38
2023-06-30T18:52:34.277Z,96575.22
2023-06-30T18:57:39.282Z,96577.09
2023-06-30T19:02:41.267Z,96579.75
2023-06-30T19:07:53.142Z,96591.91
2023-06-30T19:12:56.177Z,96585.88
2023-06-30T19:17:58.738Z,96588.44
2023-06-30T19:23:01.123Z,96596.56
2023-06-30T19:28:11.265Z,96598.41
2023-06-30T19:33:12.924Z,96602.56
2023-06-30T19:38:22.719Z,96604.44
2023-06-30T19:43:33.761Z,96605.63
2023-06-30T19:48:36.632Z,96605.63
2023-06-30T19:53:38.392Z,96607.00
2023-06-30T19:58:41.887Z,96610.00
2023-06-30T20:03:44.130Z,96612.09
2023-06-30T20:08:47.155Z,96616.50
2023-06-30T20:13:52.167Z,96610.94
2023-06-30T20:18:54.815Z,96618.59
2023-06-30T20:24:01.870Z,96618.59
2023-06-30T20:29:04.436Z,96615.94
2023-06-30T20:34:10.053Z,96612.94
2023-06-30T20:39:11.969Z,96618.38
2023-06-30T20:44:18.049Z,96623.25
2023-06-30T20:49:22.884Z,96610.38
2023-06-30T20:54:25.283Z,96616.94
2023-06-30T20:59:34.890Z,96617.78
2023-06-30T21:04:38.894Z,96618.69
2023-06-30T21:09:40.938Z,96615.41
2023-06-30T21:14:43.007Z,96612.28
2023-06-30T21:19:46.865Z,96614.16
2023-06-30T21:24:48.988Z,96622.63
2023-06-30T21:29:54.831Z,96618.53
2023-06-30T21:34:56.564Z,96621.81
2023-06-30T21:39:58.616Z,96623.19
2023-06-30T21:45:00.362Z,96619.25
2023-06-30T21:50:02.365Z,96641.06
2023-06-30T21:55:04.270Z,96631.34
2023-06-30T22:00:08.178Z,96634.34
2023-06-30T22:05:09.762Z,96634.81
2023-06-30T22:10:11.701Z,96630.53
2023-06-30T22:15:13.612Z,96627.72
2023-06-30T22:20:15.392Z,96638.03
2023-06-30T22:25:18.778Z,96628.78
2023-06-30T22:30:20.581Z,96627.38
2023-06-30T22:35:22.718Z,96617.28
2023-06-30T22:40:25.078Z,96626.34
2023-06-30T22:45:26.744Z,96628.53
2023-06-30T22:50:29.637Z,96621.81
2023-06-30T22:55:31.996Z,96614.38
2023-06-30T23:00:33.849Z,96621.56
2023-06-30T23:05:35.518Z,96618.78
2023-06-30T23:10:37.928Z,96625.97
2023-06-30T23:15:39.647Z,96627.81
2023-06-30T23:20:41.295Z,96617.59
2023-06-30T23:25:43.014Z,96621.53
2023-06-30T23:30:44.631Z,96617.09
2023-06-30T23:35:46.871Z,96625.44
2023-06-30T23:40:48.755Z,96631.44
2023-06-30T23:45:50.667Z,96628.22
2023-06-30T23:50:52.320Z,96617.66
2023-06-30T23:55:54.029Z,96628.59
